Time;durP1;ratioP1;P1;durP2;ratioP2;P2;SDS_P1;SDS_P2;PMS_P1;PMS_P2;Temp;Humidity;BMP_temperature;BMP_pressure;BME280_temperature;BME280_humidity;BME280_pressure;Samples;Min_cycle;Max_cycle;Signal;HPM_P1;HPM_P2
2024/02/19 00:01:40;;;;;;;7.78;4.72;;;;;;;;;;5900202;28;20049;-76
2024/02/19 00:04:31;;;;;;;8.35;3.58;;;;;;;;;;5885394;28;20047;-76
2024/02/19 00:07:22;;;;;;;8.48;5.05;;;;;;;;;;5883795;28;20048;-76
2024/02/19 00:10:13;;;;;;;12.10;3.25;;;;;;;;;;5917258;28;20051;-76
2024/02/19 00:13:04;;;;;;;6.10;4.03;;;;;;;;;;5904021;28;20051;-76
2024/02/19 00:15:55;;;;;;;8.25;3.78;;;;;;;;;;5888753;28;20052;-76
2024/02/19 00:18:46;;;;;;;7.93;4.10;;;;;;;;;;5888293;28;20072;-76
2024/02/19 00:21:37;;;;;;;6.90;3.50;;;;;;;;;;5871527;28;20059;-76
2024/02/19 00:24:28;;;;;;;4.30;2.88;;;;;;;;;;5904216;28;20044;-76
2024/02/19 00:27:19;;;;;;;9.57;5.43;;;;;;;;;;5921060;28;20503;-76
2024/02/19 00:30:10;;;;;;;14.98;5.95;;;;;;;;;;5889079;28;20051;-76
2024/02/19 00:33:01;;;;;;;14.02;5.30;;;;;;;;;;5889357;28;20044;-76
2024/02/19 00:35:53;;;;;;;11.02;5.15;;;;;;;;;;5921083;28;20071;-76
2024/02/19 00:38:44;;;;;;;4.57;3.67;;;;;;;;;;5904630;28;20041;-76
2024/02/19 00:41:36;;;;;;;7.07;4.47;;;;;;;;;;5887715;28;20204;-76
2024/02/19 00:44:27;;;;;;;14.40;5.43;;;;;;;;;;5888911;28;20051;-76
2024/02/19 00:47:18;;;;;;;5.80;3.97;;;;;;;;;;5887209;28;20055;-76
2024/02/19 00:50:09;;;;;;;7.85;5.13;;;;;;;;;;5920468;28;20087;-76
2024/02/19 00:53:00;;;;;;;9.77;5.25;;;;;;;;;;5920800;28;20106;-76
2024/02/19 00:55:52;;;;;;;8.27;3.03;;;;;;;;;;5871020;28;20033;-76
2024/02/19 00:58:43;;;;;;;12.15;5.50;;;;;;;;;;5888611;28;20056;-76
2024/02/19 01:01:34;;;;;;;8.95;6.15;;;;;;;;;;5890102;28;20413;-76
2024/02/19 01:04:25;;;;;;;15.98;5.22;;;;;;;;;;5912504;28;20071;-76
2024/02/19 01:07:17;;;;;;;7.63;4.03;;;;;;;;;;5888258;28;20072;-76
2024/02/19 01:10:09;;;;;;;10.75;5.18;;;;;;;;;;5886829;28;20056;-76
2024/02/19 01:13:00;;;;;;;9.15;4.65;;;;;;;;;;5887303;28;20451;-76
2024/02/19 01:15:51;;;;;;;9.18;5.15;;;;;;;;;;5888531;28;20049;-76
2024/02/19 01:18:42;;;;;;;13.95;5.50;;;;;;;;;;5887961;28;20045;-76
2024/02/19 01:21:32;;;;;;;9.40;4.55;;;;;;;;;;5886898;28;20040;-76
2024/02/19 01:24:24;;;;;;;9.23;5.45;;;;;;;;;;5888098;28;20402;-76
2024/02/19 01:27:15;;;;;;;6.57;4.20;;;;;;;;;;5886625;28;20060;-76
2024/02/19 01:30:06;;;;;;;7.43;4.85;;;;;;;;;;5886469;28;20053;-76
2024/02/19 01:32:59;;;;;;;6.07;3.97;;;;;;;;;;5888170;28;20045;-76
2024/02/19 01:35:50;;;;;;;7.97;4.63;;;;;;;;;;5903681;28;20044;-76
2024/02/19 01:38:42;;;;;;;11.13;5.88;;;;;;;;;;5886096;28;20052;-76
2024/02/19 01:41:32;;;;;;;8.55;4.68;;;;;;;;;;5869769;28;20041;-76
2024/02/19 01:44:24;;;;;;;7.82;4.88;;;;;;;;;;5886033;28;20045;-76
2024/02/19 01:47:17;;;;;;;6.40;4.22;;;;;;;;;;5887039;28;20052;-76
2024/02/19 01:50:09;;;;;;;8.05;4.80;;;;;;;;;;5886565;28;20056;-76
2024/02/19 01:53:04;;;;;;;6.63;3.90;;;;;;;;;;5895129;28;20049;-76
2024/02/19 01:55:55;;;;;;;11.00;4.97;;;;;;;;;;5888129;28;20059;-75
2024/02/19 01:58:46;;;;;;;13.05;4.43;;;;;;;;;;5902287;28;20068;-75
2024/02/19 02:01:38;;;;;;;5.90;3.35;;;;;;;;;;5887262;28;20044;-75
2024/02/19 02:04:29;;;;;;;3.97;3.60;;;;;;;;;;5885905;28;20045;-76
2024/02/19 02:07:20;;;;;;;9.27;3.20;;;;;;;;;;5887029;28;20056;-75
2024/02/19 02:10:11;;;;;;;15.35;6.28;;;;;;;;;;5885544;28;20118;-75
2024/02/19 02:13:02;;;;;;;8.02;4.57;;;;;;;;;;5885482;28;20087;-75
2024/02/19 02:15:53;;;;;;;8.93;3.78;;;;;;;;;;5885759;28;20051;-75
2024/02/19 02:18:43;;;;;;;11.68;4.57;;;;;;;;;;5886765;28;20045;-75
2024/02/19 02:21:36;;;;;;;5.43;3.22;;;;;;;;;;5885472;28;20048;-76
2024/02/19 02:24:28;;;;;;;9.25;4.00;;;;;;;;;;5885278;28;20190;-76
2024/02/19 02:27:18;;;;;;;7.35;4.10;;;;;;;;;;5885213;28;20045;-76
2024/02/19 02:30:10;;;;;;;7.20;3.63;;;;;;;;;;5885466;28;20049;-76
2024/02/19 02:33:01;;;;;;;8.20;3.35;;;;;;;;;;5885247;28;20041;-76
2024/02/19 02:35:52;;;;;;;6.68;4.18;;;;;;;;;;5886286;28;20045;-76
2024/02/19 02:38:43;;;;;;;9.10;5.38;;;;;;;;;;5885160;28;20585;-76
2024/02/19 02:41:34;;;;;;;6.05;2.78;;;;;;;;;;5884892;28;20059;-76
2024/02/19 02:44:25;;;;;;;9.65;4.72;;;;;;;;;;5886142;28;20041;-75
2024/02/19 02:47:16;;;;;;;9.15;5.07;;;;;;;;;;5901158;28;20045;-75
2024/02/19 02:50:07;;;;;;;15.98;4.18;;;;;;;;;;5886147;28;20045;-75
2024/02/19 02:52:58;;;;;;;8.27;4.20;;;;;;;;;;5885332;28;20048;-75
2024/02/19 02:55:48;;;;;;;6.78;2.85;;;;;;;;;;5885296;28;20539;-76
2024/02/19 02:58:39;;;;;;;8.43;4.22;;;;;;;;;;5884592;28;20063;-76
2024/02/19 03:01:30;;;;;;;5.90;3.60;;;;;;;;;;5884594;28;20045;-76
2024/02/19 03:04:21;;;;;;;9.68;3.28;;;;;;;;;;5884239;28;20049;-76
2024/02/19 03:07:12;;;;;;;7.47;4.65;;;;;;;;;;5868142;28;20054;-76
2024/02/19 03:10:04;;;;;;;11.88;4.03;;;;;;;;;;5884528;28;20413;-76
2024/02/19 03:12:55;;;;;;;5.40;2.95;;;;;;;;;;5884909;28;20098;-76
2024/02/19 03:15:46;;;;;;;5.97;3.20;;;;;;;;;;5885713;28;20115;-76
2024/02/19 03:18:37;;;;;;;9.13;4.40;;;;;;;;;;5884037;28;20095;-76
2024/02/19 03:21:28;;;;;;;4.43;3.10;;;;;;;;;;5884710;28;20045;-76
2024/02/19 03:24:19;;;;;;;7.03;3.20;;;;;;;;;;5885516;28;20414;-76
2024/02/19 03:27:11;;;;;;;8.52;4.20;;;;;;;;;;5884085;28;20051;-76
2024/02/19 03:30:02;;;;;;;4.80;3.13;;;;;;;;;;5884091;28;20059;-76
2024/02/19 03:32:53;;;;;;;7.68;4.10;;;;;;;;;;5884340;28;20041;-76
2024/02/19 03:35:43;;;;;;;6.57;3.70;;;;;;;;;;5900622;28;20041;-76
2024/02/19 03:38:34;;;;;;;4.07;3.47;;;;;;;;;;5884113;28;20415;-76
2024/02/19 03:41:25;;;;;;;6.35;4.10;;;;;;;;;;5885455;28;20045;-76
2024/02/19 03:44:16;;;;;;;10.85;2.78;;;;;;;;;;5884072;28;20072;-76
2024/02/19 03:47:07;;;;;;;10.52;4.25;;;;;;;;;;5888549;28;20053;-76
2024/02/19 03:49:57;;;;;;;7.53;2.67;;;;;;;;;;5890321;28;20041;-76
2024/02/19 03:52:48;;;;;;;8.02;3.47;;;;;;;;;;5888814;28;20052;-76
2024/02/19 03:55:39;;;;;;;13.05;3.47;;;;;;;;;;5888173;28;20045;-76
2024/02/19 03:58:30;;;;;;;4.75;3.33;;;;;;;;;;5888781;28;20398;-76
2024/02/19 04:01:21;;;;;;;7.07;4.35;;;;;;;;;;5888362;28;20501;-76
2024/02/19 04:04:12;;;;;;;5.60;3.25;;;;;;;;;;5888709;28;20114;-76
2024/02/19 04:07:03;;;;;;;6.45;2.92;;;;;;;;;;5889772;28;20055;-76
2024/02/19 04:09:53;;;;;;;6.28;3.75;;;;;;;;;;5872348;28;20429;-76
2024/02/19 04:12:44;;;;;;;3.58;2.67;;;;;;;;;;5889580;28;20048;-76
2024/02/19 04:15:38;;;;;;;8.57;3.90;;;;;;;;;;5888178;28;20053;-76
2024/02/19 04:18:29;;;;;;;6.47;3.22;;;;;;;;;;5888331;28;20127;-76
2024/02/19 04:21:20;;;;;;;6.00;1.90;;;;;;;;;;5904899;28;20132;-76
2024/02/19 04:24:12;;;;;;;12.90;5.53;;;;;;;;;;5871530;28;20049;-76
2024/02/19 04:27:03;;;;;;;8.20;5.57;;;;;;;;;;5889186;28;20052;-76
2024/02/19 04:29:54;;;;;;;7.55;5.63;;;;;;;;;;5888884;28;20410;-76
2024/02/19 04:32:44;;;;;;;19.10;5.88;;;;;;;;;;5889239;28;20060;-76
2024/02/19 04:35:35;;;;;;;11.48;5.82;;;;;;;;;;5871664;28;20098;-76
2024/02/19 04:38:26;;;;;;;8.35;3.53;;;;;;;;;;5889247;28;20163;-76
2024/02/19 04:41:16;;;;;;;4.43;2.25;;;;;;;;;;5904255;28;20053;-76
2024/02/19 04:44:07;;;;;;;5.25;3.42;;;;;;;;;;5887636;28;20393;-77
2024/02/19 04:46:58;;;;;;;6.35;3.45;;;;;;;;;;5888493;28;20045;-77
2024/02/19 04:49:49;;;;;;;3.70;2.67;;;;;;;;;;5887678;28;20048;-77
2024/02/19 04:52:39;;;;;;;4.95;2.63;;;;;;;;;;5887839;28;20044;-77
2024/02/19 04:55:30;;;;;;;5.93;2.47;;;;;;;;;;5887583;28;20041;-77
2024/02/19 04:58:21;;;;;;;6.00;3.97;;;;;;;;;;5886895;28;20076;-77
2024/02/19 05:01:12;;;;;;;6.25;2.33;;;;;;;;;;5888234;28;20049;-77
2024/02/19 05:04:03;;;;;;;3.10;2.40;;;;;;;;;;5887454;28;20139;-77
2024/02/19 05:06:54;;;;;;;9.73;3.67;;;;;;;;;;5889190;28;20045;-77
2024/02/19 05:09:45;;;;;;;5.72;3.05;;;;;;;;;;5888813;28;20053;-77
2024/02/19 05:12:36;;;;;;;8.80;3.30;;;;;;;;;;5887199;28;20440;-77
2024/02/19 05:15:26;;;;;;;9.98;6.03;;;;;;;;;;5887093;28;20053;-77
2024/02/19 05:18:17;;;;;;;6.35;4.32;;;;;;;;;;5887021;28;20056;-77
2024/02/19 05:21:08;;;;;;;8.60;4.20;;;;;;;;;;5886992;28;20127;-77
2024/02/19 05:24:00;;;;;;;8.57;3.78;;;;;;;;;;5887674;28;20521;-77
2024/02/19 05:26:51;;;;;;;3.22;2.50;;;;;;;;;;5888597;28;20059;-77
2024/02/19 05:29:41;;;;;;;6.72;3.67;;;;;;;;;;5886815;28;20037;-77
2024/02/19 05:32:32;;;;;;;4.60;2.90;;;;;;;;;;5887079;28;20044;-77
2024/02/19 05:35:24;;;;;;;5.72;2.63;;;;;;;;;;5887101;28;20096;-77
2024/02/19 05:38:16;;;;;;;13.65;3.03;;;;;;;;;;5886926;28;20041;-77
2024/02/19 05:41:06;;;;;;;9.43;3.50;;;;;;;;;;5886663;28;20056;-77
2024/02/19 05:43:57;;;;;;;4.50;2.90;;;;;;;;;;5870621;28;20129;-77
2024/02/19 05:46:48;;;;;;;5.45;3.38;;;;;;;;;;5887741;28;20053;-77
2024/02/19 05:49:39;;;;;;;3.83;3.53;;;;;;;;;;5886077;28;20045;-77
2024/02/19 05:52:35;;;;;;;5.30;2.45;;;;;;;;;;5887596;28;20049;-77
2024/02/19 05:55:26;;;;;;;2.95;2.55;;;;;;;;;;5886288;28;20486;-77
2024/02/19 05:58:18;;;;;;;5.50;2.47;;;;;;;;;;5887308;28;20049;-77
2024/02/19 06:01:09;;;;;;;5.07;3.97;;;;;;;;;;5887541;28;20049;-77
2024/02/19 06:04:00;;;;;;;4.68;3.80;;;;;;;;;;5903043;28;20126;-77
2024/02/19 06:06:51;;;;;;;7.90;4.50;;;;;;;;;;5886299;28;20390;-77
2024/02/19 06:09:42;;;;;;;5.93;3.38;;;;;;;;;;5884534;28;20037;-77
2024/02/19 06:12:33;;;;;;;5.90;2.38;;;;;;;;;;5869520;28;20045;-77
2024/02/19 06:15:24;;;;;;;7.82;4.45;;;;;;;;;;5902389;28;20041;-77
2024/02/19 06:18:15;;;;;;;6.57;5.25;;;;;;;;;;5885833;28;20061;-77
2024/02/19 06:21:06;;;;;;;10.77;6.90;;;;;;;;;;5886824;28;20049;-77
2024/02/19 06:23:57;;;;;;;11.52;5.10;;;;;;;;;;5886009;28;20049;-77
2024/02/19 06:26:47;;;;;;;11.73;6.72;;;;;;;;;;5885462;28;20061;-77
2024/02/19 06:29:38;;;;;;;19.17;7.20;;;;;;;;;;5885406;28;20040;-77
2024/02/19 06:32:29;;;;;;;14.45;7.45;;;;;;;;;;5885080;28;20055;-77
2024/02/19 06:35:19;;;;;;;10.10;6.70;;;;;;;;;;5886707;28;20417;-77
2024/02/19 06:38:10;;;;;;;14.57;6.80;;;;;;;;;;5885133;28;20393;-78
2024/02/19 06:41:01;;;;;;;11.27;7.43;;;;;;;;;;5885143;28;20041;-77
2024/02/19 06:43:52;;;;;;;15.25;6.78;;;;;;;;;;5887070;28;20067;-78
2024/02/19 06:46:43;;;;;;;17.00;10.10;;;;;;;;;;5885091;28;20052;-78
2024/02/19 06:49:33;;;;;;;10.15;8.63;;;;;;;;;;5901392;28;20508;-77
2024/02/19 06:52:24;;;;;;;15.93;9.07;;;;;;;;;;5886199;28;20045;-77
2024/02/19 06:55:16;;;;;;;5.57;4.60;;;;;;;;;;5886179;28;20110;-77
2024/02/19 06:58:07;;;;;;;19.90;6.93;;;;;;;;;;5886274;28;20509;-78
2024/02/19 07:00:58;;;;;;;7.40;6.15;;;;;;;;;;5885390;28;20095;-78
2024/02/19 07:03:50;;;;;;;12.52;7.80;;;;;;;;;;5884980;28;20143;-78
2024/02/19 07:06:41;;;;;;;8.45;4.50;;;;;;;;;;5884677;28;20129;-77
2024/02/19 07:09:31;;;;;;;12.05;6.97;;;;;;;;;;5901227;28;20041;-78
2024/02/19 07:12:22;;;;;;;11.32;5.88;;;;;;;;;;5884726;28;20498;-78
2024/02/19 07:15:13;;;;;;;14.20;5.80;;;;;;;;;;5885941;28;20064;-78
2024/02/19 07:18:04;;;;;;;11.20;5.55;;;;;;;;;;5884630;28;20761;-78
2024/02/19 07:20:55;;;;;;;8.15;3.75;;;;;;;;;;5884704;28;20101;-78
2024/02/19 07:23:46;;;;;;;4.50;3.33;;;;;;;;;;5868005;28;20049;-78
2024/02/19 07:26:37;;;;;;;6.05;4.30;;;;;;;;;;5884526;28;20057;-78
2024/02/19 07:29:27;;;;;;;4.45;2.10;;;;;;;;;;5884375;28;20045;-78
2024/02/19 07:32:18;;;;;;;5.18;2.53;;;;;;;;;;5884108;28;20056;-78
2024/02/19 07:35:09;;;;;;;2.85;2.22;;;;;;;;;;5867948;28;20422;-79
2024/02/19 07:38:00;;;;;;;2.75;2.55;;;;;;;;;;5886190;28;20049;-78
2024/02/19 07:40:51;;;;;;;2.75;2.03;;;;;;;;;;5867849;28;20057;-79
2024/02/19 07:43:43;;;;;;;5.18;2.90;;;;;;;;;;5885491;28;20049;-78
2024/02/19 07:46:34;;;;;;;3.75;1.95;;;;;;;;;;5884274;28;20052;-78
2024/02/19 07:49:25;;;;;;;4.00;3.13;;;;;;;;;;5885518;28;20045;-78
2024/02/19 07:52:16;;;;;;;2.53;2.20;;;;;;;;;;5884188;28;20079;-78
2024/02/19 07:55:07;;;;;;;4.80;2.95;;;;;;;;;;5884076;28;20053;-78
2024/02/19 07:57:57;;;;;;;10.48;6.05;;;;;;;;;;5885866;28;20401;-78
2024/02/19 08:00:48;;;;;;;10.30;4.63;;;;;;;;;;5884130;28;20378;-78
2024/02/19 08:03:39;;;;;;;5.43;4.82;;;;;;;;;;5884259;28;20041;-79
2024/02/19 08:06:30;;;;;;;5.70;3.95;;;;;;;;;;5883947;28;20414;-79
2024/02/19 08:09:22;;;;;;;6.53;3.85;;;;;;;;;;5900599;28;20077;-79
2024/02/19 08:12:13;;;;;;;5.43;3.80;;;;;;;;;;5884127;28;20045;-78
2024/02/19 08:15:05;;;;;;;7.88;5.88;;;;;;;;;;5885351;28;20041;-78
2024/02/19 08:17:56;;;;;;;4.63;3.63;;;;;;;;;;5901025;28;20057;-79
2024/02/19 08:20:47;;;;;;;13.13;5.13;;;;;;;;;;5867488;28;20040;-79
2024/02/19 08:23:38;;;;;;;6.72;4.88;;;;;;;;;;5900486;28;20124;-79
2024/02/19 08:26:29;;;;;;;8.27;6.90;;;;;;;;;;5867607;28;20048;-79
2024/02/19 08:29:20;;;;;;;11.30;6.55;;;;;;;;;;5900110;28;20053;-79
2024/02/19 08:32:11;;;;;;;16.70;8.32;;;;;;;;;;5885852;28;20147;-80
2024/02/19 08:35:02;;;;;;;16.17;10.02;;;;;;;;;;5888120;28;20049;-79
2024/02/19 08:37:53;;;;;;;10.43;7.00;;;;;;;;;;5889788;28;20073;-80
2024/02/19 08:40:43;;;;;;;9.48;6.15;;;;;;;;;;5904306;28;20049;-80
2024/02/19 08:43:34;;;;;;;10.85;8.60;;;;;;;;;;5887995;28;20040;-80
2024/02/19 08:46:25;;;;;;;8.95;8.02;;;;;;;;;;5887862;28;20044;-80
2024/02/19 08:49:16;;;;;;;17.35;10.43;;;;;;;;;;5887791;28;20497;-80
2024/02/19 08:52:07;;;;;;;14.95;11.25;;;;;;;;;;5887773;28;20052;-80
2024/02/19 08:54:58;;;;;;;12.55;7.00;;;;;;;;;;5887988;28;20183;-80
2024/02/19 08:57:49;;;;;;;8.07;6.50;;;;;;;;;;5887410;28;20063;-80
2024/02/19 09:00:40;;;;;;;8.85;6.90;;;;;;;;;;5887572;28;20518;-80
2024/02/19 09:03:31;;;;;;;13.90;5.63;;;;;;;;;;5887380;28;20121;-80
2024/02/19 09:06:22;;;;;;;11.35;5.55;;;;;;;;;;5904010;28;20045;-80
2024/02/19 09:09:13;;;;;;;5.40;4.15;;;;;;;;;;5870633;28;20119;-80
2024/02/19 09:12:04;;;;;;;10.07;4.70;;;;;;;;;;5887292;28;20044;-80
2024/02/19 09:14:55;;;;;;;5.60;5.03;;;;;;;;;;5871027;28;20045;-80
2024/02/19 09:17:46;;;;;;;5.88;4.97;;;;;;;;;;5887126;28;20056;-80
2024/02/19 09:20:37;;;;;;;7.00;4.60;;;;;;;;;;5888329;28;20450;-80
2024/02/19 09:23:27;;;;;;;5.85;4.68;;;;;;;;;;5870428;28;20040;-80
2024/02/19 09:26:21;;;;;;;7.63;5.53;;;;;;;;;;5887084;28;20079;-80
2024/02/19 09:29:11;;;;;;;6.30;5.22;;;;;;;;;;5886764;28;20045;-80
2024/02/19 09:32:02;;;;;;;10.73;5.97;;;;;;;;;;5886423;28;20055;-80
2024/02/19 09:34:53;;;;;;;6.05;4.38;;;;;;;;;;5887151;28;20137;-80
2024/02/19 09:37:44;;;;;;;6.55;5.50;;;;;;;;;;5886260;28;20052;-80
2024/02/19 09:40:36;;;;;;;7.13;5.03;;;;;;;;;;5886782;28;20045;-80
2024/02/19 09:43:27;;;;;;;13.93;6.38;;;;;;;;;;5886531;28;20044;-81
2024/02/19 09:46:22;;;;;;;12.23;6.15;;;;;;;;;;5869844;28;20045;-80
2024/02/19 09:49:14;;;;;;;8.65;7.07;;;;;;;;;;5886739;28;20064;-80
2024/02/19 09:52:08;;;;;;;11.43;7.55;;;;;;;;;;5886739;28;20127;-80
2024/02/19 09:54:59;;;;;;;9.15;6.03;;;;;;;;;;5886845;28;20044;-80
2024/02/19 09:57:50;;;;;;;7.00;5.68;;;;;;;;;;5887453;28;20041;-80
2024/02/19 10:00:41;;;;;;;8.18;5.63;;;;;;;;;;5886167;28;20045;-80
2024/02/19 10:03:32;;;;;;;6.90;5.38;;;;;;;;;;5902347;28;20569;-80
2024/02/19 10:06:35;;;;;;;10.63;6.22;;;;;;;;;;5886136;28;20402;-81
2024/02/19 10:09:27;;;;;;;9.60;5.63;;;;;;;;;;5886361;28;20072;-80
2024/02/19 10:12:19;;;;;;;15.77;6.40;;;;;;;;;;5887526;28;20071;-80
2024/02/19 10:15:10;;;;;;;8.05;5.47;;;;;;;;;;5885795;28;20057;-80
2024/02/19 10:18:16;;;;;;;3.72;3.42;;;;;;;;;;5869600;28;20059;-81
2024/02/19 10:21:09;;;;;;;6.57;5.45;;;;;;;;;;5886748;28;20168;-80
2024/02/19 10:24:00;;;;;;;6.70;4.93;;;;;;;;;;5885785;28;20049;-81
2024/02/19 10:26:51;;;;;;;11.82;7.47;;;;;;;;;;5885771;28;20134;-81
2024/02/19 10:29:42;;;;;;;12.07;7.10;;;;;;;;;;5886783;28;20413;-80
2024/02/19 10:32:32;;;;;;;7.43;5.65;;;;;;;;;;5885684;28;20417;-81
2024/02/19 10:35:23;;;;;;;12.32;6.90;;;;;;;;;;5885351;28;20048;-80
2024/02/19 10:38:16;;;;;;;7.78;4.90;;;;;;;;;;5886619;28;20074;-80
2024/02/19 10:41:07;;;;;;;8.50;3.75;;;;;;;;;;5885694;28;20053;-80
2024/02/19 10:43:58;;;;;;;5.65;4.63;;;;;;;;;;5887021;28;20075;-81
2024/02/19 10:46:49;;;;;;;9.68;5.75;;;;;;;;;;5886196;28;20045;-80
2024/02/19 10:49:49;;;;;;;11.13;7.43;;;;;;;;;;5884987;28;20041;-81
2024/02/19 10:52:41;;;;;;;10.38;5.70;;;;;;;;;;5885566;28;20041;-80
2024/02/19 10:55:35;;;;;;;10.88;6.22;;;;;;;;;;5884483;28;20049;-81
2024/02/19 10:58:53;;;;;;;8.35;5.10;;;;;;;;;;5885235;28;20041;-80
2024/02/19 11:01:46;;;;;;;7.70;4.75;;;;;;;;;;5885310;28;20064;-81
2024/02/19 11:04:38;;;;;;;17.00;7.90;;;;;;;;;;5885107;28;20045;-80
2024/02/19 11:07:33;;;;;;;8.55;6.55;;;;;;;;;;5901446;28;20041;-80
2024/02/19 11:10:24;;;;;;;11.25;5.60;;;;;;;;;;5884854;28;20443;-80
2024/02/19 11:13:18;;;;;;;6.07;4.75;;;;;;;;;;5884401;28;20056;-80
2024/02/19 11:16:19;;;;;;;5.53;3.92;;;;;;;;;;5884693;28;20052;-81
2024/02/19 11:19:10;;;;;;;4.40;3.25;;;;;;;;;;5884606;28;20048;-81
2024/02/19 11:22:09;;;;;;;3.05;2.63;;;;;;;;;;5868279;28;20487;-81
2024/02/19 11:25:01;;;;;;;6.55;1.70;;;;;;;;;;5884644;28;20041;-82
2024/02/19 11:27:52;;;;;;;11.40;6.80;;;;;;;;;;5884896;28;20052;-81
2024/02/19 11:30:43;;;;;;;4.55;2.72;;;;;;;;;;5885449;28;20045;-82
2024/02/19 11:33:35;;;;;;;5.80;4.07;;;;;;;;;;5900778;28;20510;-81
2024/02/19 11:36:25;;;;;;;3.17;2.88;;;;;;;;;;5884393;28;20879;-81
2024/02/19 11:39:16;;;;;;;9.20;5.45;;;;;;;;;;5884365;28;20151;-81
2024/02/19 11:42:10;;;;;;;4.47;3.08;;;;;;;;;;5884653;28;20053;-80
2024/02/19 11:45:01;;;;;;;3.13;2.20;;;;;;;;;;5868116;28;20041;-81
2024/02/19 11:47:52;;;;;;;4.75;3.17;;;;;;;;;;5901198;28;20227;-81
2024/02/19 11:50:44;;;;;;;3.83;2.15;;;;;;;;;;5900384;28;20043;-82
2024/02/19 11:53:35;;;;;;;3.38;3.08;;;;;;;;;;5884437;28;20418;-82
2024/02/19 11:56:26;;;;;;;7.57;5.63;;;;;;;;;;5884047;28;20068;-82
2024/02/19 11:59:18;;;;;;;8.40;4.55;;;;;;;;;;5867531;28;20049;-83
2024/02/19 12:02:09;;;;;;;3.15;2.17;;;;;;;;;;5884541;28;20689;-83
2024/02/19 12:05:03;;;;;;;1.75;1.65;;;;;;;;;;5885471;28;20048;-83
2024/02/19 12:07:54;;;;;;;4.93;2.65;;;;;;;;;;5888169;28;20041;-85
2024/02/19 12:10:46;;;;;;;5.97;3.75;;;;;;;;;;5888484;28;20108;-85
2024/02/19 12:13:38;;;;;;;3.13;2.83;;;;;;;;;;5889793;28;20041;-85
2024/02/19 12:16:30;;;;;;;6.05;3.50;;;;;;;;;;5889682;28;20051;-86
2024/02/19 12:19:21;;;;;;;3.60;3.03;;;;;;;;;;5888427;28;20529;-85
2024/02/19 12:22:12;;;;;;;3.70;2.92;;;;;;;;;;5889508;28;20053;-85
2024/02/19 12:25:05;;;;;;;20.85;9.80;;;;;;;;;;5888316;28;20045;-85
2024/02/19 12:27:55;;;;;;;19.45;12.13;;;;;;;;;;5889832;28;20049;-85
2024/02/19 12:30:46;;;;;;;13.27;8.30;;;;;;;;;;5889388;28;20552;-85
2024/02/19 12:33:38;;;;;;;10.32;4.85;;;;;;;;;;5887232;28;20051;-85
2024/02/19 12:36:29;;;;;;;7.18;4.22;;;;;;;;;;5889471;28;20048;-85
2024/02/19 12:39:20;;;;;;;5.03;3.38;;;;;;;;;;5889250;28;20513;-84
2024/02/19 12:42:11;;;;;;;30.45;18.77;;;;;;;;;;5888144;28;20095;-84
2024/02/19 12:45:01;;;;;;;10.77;7.13;;;;;;;;;;5887654;28;20045;-83
2024/02/19 12:47:52;;;;;;;10.65;5.13;;;;;;;;;;5888254;28;20593;-85
2024/02/19 12:50:43;;;;;;;14.57;4.25;;;;;;;;;;5903855;28;20091;-84
2024/02/19 12:53:35;;;;;;;6.40;4.72;;;;;;;;;;5888816;28;20041;-84
2024/02/19 12:56:26;;;;;;;16.80;10.88;;;;;;;;;;5887429;28;20072;-84
2024/02/19 12:59:17;;;;;;;11.90;7.93;;;;;;;;;;5887629;28;20052;-84
2024/02/19 13:02:14;;;;;;;6.13;4.57;;;;;;;;;;5888766;28;20049;-84
2024/02/19 13:05:06;;;;;;;5.72;3.83;;;;;;;;;;5888635;28;20055;-83
2024/02/19 13:07:56;;;;;;;3.90;3.53;;;;;;;;;;5889324;28;20045;-86
2024/02/19 13:10:47;;;;;;;8.65;4.90;;;;;;;;;;5888666;28;20084;-86
2024/02/19 13:13:39;;;;;;;7.47;4.80;;;;;;;;;;5888422;28;20045;-85
2024/02/19 13:16:30;;;;;;;21.33;12.88;;;;;;;;;;5888119;28;20048;-85
2024/02/19 13:19:21;;;;;;;30.70;18.02;;;;;;;;;;5886726;28;20052;-86
2024/02/19 13:22:12;;;;;;;24.95;13.07;;;;;;;;;;5887999;28;20056;-85
2024/02/19 13:25:04;;;;;;;8.98;5.25;;;;;;;;;;5901404;28;20052;-86
2024/02/19 13:27:55;;;;;;;11.50;7.40;;;;;;;;;;5885079;28;20048;-86
2024/02/19 13:30:46;;;;;;;9.15;5.85;;;;;;;;;;5885988;28;20055;-86
2024/02/19 13:33:37;;;;;;;3.28;2.97;;;;;;;;;;5884753;28;20056;-87
2024/02/19 13:36:27;;;;;;;12.05;6.90;;;;;;;;;;5884480;28;20064;-87
2024/02/19 13:39:20;;;;;;;10.35;7.82;;;;;;;;;;5886207;28;20036;-86
2024/02/19 13:42:12;;;;;;;6.28;4.90;;;;;;;;;;5887853;28;20049;-86
2024/02/19 13:45:07;;;;;;;7.45;4.38;;;;;;;;;;5886602;28;20119;-87
2024/02/19 13:47:59;;;;;;;5.20;2.90;;;;;;;;;;5888206;28;20128;-88
2024/02/19 13:50:58;;;;;;;5.18;2.97;;;;;;;;;;5886273;28;20052;-87
2024/02/19 13:53:50;;;;;;;2.15;1.40;;;;;;;;;;5886734;28;20124;-87
2024/02/19 13:56:40;;;;;;;5.70;2.47;;;;;;;;;;5887547;28;20071;-86
2024/02/19 13:59:31;;;;;;;11.70;7.75;;;;;;;;;;5902500;28;20041;-86
2024/02/19 14:02:22;;;;;;;2.95;1.90;;;;;;;;;;5887320;28;20041;-87
2024/02/19 14:05:13;;;;;;;7.00;2.55;;;;;;;;;;5887341;28;20053;-86
2024/02/19 14:08:05;;;;;;;2.28;1.60;;;;;;;;;;5887421;28;20059;-86
2024/02/19 14:10:59;;;;;;;5.82;3.20;;;;;;;;;;5886292;28;20041;-86
2024/02/19 14:13:50;;;;;;;7.15;3.13;;;;;;;;;;5886186;28;20037;-86
2024/02/19 14:16:51;;;;;;;1.25;1.08;;;;;;;;;;5887340;28;20045;-86
2024/02/19 14:19:42;;;;;;;1.15;1.08;;;;;;;;;;5886918;28;20044;-86
2024/02/19 14:22:35;;;;;;;1.30;1.20;;;;;;;;;;5887023;28;20460;-86
2024/02/19 14:25:25;;;;;;;4.00;0.88;;;;;;;;;;5886985;28;20045;-85
2024/02/19 14:28:16;;;;;;;2.05;1.85;;;;;;;;;;5885321;28;20049;-85
2024/02/19 14:31:09;;;;;;;1.55;1.45;;;;;;;;;;5884506;28;20041;-84
2024/02/19 14:34:00;;;;;;;3.08;1.58;;;;;;;;;;5885708;28;20052;-85
2024/02/19 14:36:51;;;;;;;3.97;2.92;;;;;;;;;;5886750;28;20059;-85
2024/02/19 14:39:42;;;;;;;5.35;2.90;;;;;;;;;;5901852;28;20045;-86
2024/02/19 14:42:32;;;;;;;4.18;2.95;;;;;;;;;;5886993;28;20053;-84
2024/02/19 14:45:24;;;;;;;1.40;1.27;;;;;;;;;;5885397;28;20048;-84
2024/02/19 14:48:15;;;;;;;7.05;4.03;;;;;;;;;;5886237;28;20048;-84
2024/02/19 14:51:06;;;;;;;3.58;1.98;;;;;;;;;;5886091;28;20049;-84
2024/02/19 14:53:57;;;;;;;3.70;2.80;;;;;;;;;;5869167;28;20053;-84
2024/02/19 14:56:48;;;;;;;2.90;2.35;;;;;;;;;;5901305;28;20049;-85
2024/02/19 14:59:40;;;;;;;2.88;2.38;;;;;;;;;;5886576;28;20503;-85
2024/02/19 15:02:31;;;;;;;4.35;2.60;;;;;;;;;;5885967;28;20048;-84
2024/02/19 15:05:22;;;;;;;3.53;3.00;;;;;;;;;;5886537;28;20068;-84
2024/02/19 15:08:19;;;;;;;2.25;1.80;;;;;;;;;;5884970;28;20514;-84
2024/02/19 15:11:10;;;;;;;5.75;3.78;;;;;;;;;;5869186;28;20114;-85
2024/02/19 15:14:01;;;;;;;2.95;2.53;;;;;;;;;;5886283;28;20104;-83
2024/02/19 15:16:52;;;;;;;8.23;6.68;;;;;;;;;;5886423;28;20040;-84
2024/02/19 15:19:43;;;;;;;15.48;7.53;;;;;;;;;;5884510;28;20041;-84
2024/02/19 15:22:34;;;;;;;11.00;7.85;;;;;;;;;;5884713;28;20047;-84
2024/02/19 15:25:24;;;;;;;12.63;6.63;;;;;;;;;;5885778;28;20059;-84
2024/02/19 15:28:15;;;;;;;9.15;4.82;;;;;;;;;;5885594;28;20135;-84
2024/02/19 15:31:07;;;;;;;7.13;2.47;;;;;;;;;;5900979;28;20049;-83
2024/02/19 15:33:58;;;;;;;3.75;2.45;;;;;;;;;;5886385;28;20057;-84
2024/02/19 15:36:49;;;;;;;3.20;2.88;;;;;;;;;;5884484;28;20604;-84
2024/02/19 15:39:40;;;;;;;8.20;2.78;;;;;;;;;;5884123;28;20053;-83
2024/02/19 15:42:36;;;;;;;1.33;1.20;;;;;;;;;;5888500;28;20052;-83
2024/02/19 15:45:27;;;;;;;3.92;2.75;;;;;;;;;;5889006;28;20099;-83
2024/02/19 15:48:18;;;;;;;4.25;2.38;;;;;;;;;;5889157;28;20045;-83
2024/02/19 15:51:09;;;;;;;5.20;3.58;;;;;;;;;;5888811;28;20053;-83
2024/02/19 15:54:01;;;;;;;1.77;1.67;;;;;;;;;;5889416;28;20045;-84
2024/02/19 15:56:51;;;;;;;6.15;2.75;;;;;;;;;;5872473;28;20048;-83
2024/02/19 15:59:42;;;;;;;8.90;4.15;;;;;;;;;;5890103;28;20047;-84
2024/02/19 16:02:38;;;;;;;12.07;7.53;;;;;;;;;;5872075;28;20053;-84
2024/02/19 16:05:29;;;;;;;10.27;5.18;;;;;;;;;;5890045;28;20494;-84
2024/02/19 16:08:32;;;;;;;9.70;5.22;;;;;;;;;;5888490;28;20053;-84
2024/02/19 16:11:23;;;;;;;15.23;7.18;;;;;;;;;;5889733;28;20073;-84
2024/02/19 16:14:14;;;;;;;3.42;2.88;;;;;;;;;;5879567;28;20060;-84
2024/02/19 16:17:05;;;;;;;5.05;4.05;;;;;;;;;;5888382;28;20063;-84
2024/02/19 16:19:55;;;;;;;4.38;2.35;;;;;;;;;;5889143;28;20044;-85
2024/02/19 16:22:48;;;;;;;4.32;3.72;;;;;;;;;;5888329;28;20095;-84
2024/02/19 16:25:39;;;;;;;2.20;1.58;;;;;;;;;;5888768;28;20187;-84
2024/02/19 16:28:30;;;;;;;3.72;1.55;;;;;;;;;;5871817;28;20517;-85
2024/02/19 16:31:21;;;;;;;1.40;1.13;;;;;;;;;;5887964;28;20061;-84
2024/02/19 16:34:12;;;;;;;2.50;1.35;;;;;;;;;;5871757;28;20447;-84
2024/02/19 16:37:03;;;;;;;0.47;0.47;;;;;;;;;;5889399;28;20049;-83
2024/02/19 16:39:54;;;;;;;2.13;1.92;;;;;;;;;;5888621;28;20116;-84
2024/02/19 16:42:45;;;;;;;1.70;0.95;;;;;;;;;;5904294;28;20051;-85
2024/02/19 16:45:37;;;;;;;3.03;1.88;;;;;;;;;;5889281;28;20435;-84
2024/02/19 16:48:32;;;;;;;1.10;0.73;;;;;;;;;;5904247;28;20048;-85
2024/02/19 16:51:23;;;;;;;3.97;0.80;;;;;;;;;;5887948;28;20043;-85
2024/02/19 16:54:17;;;;;;;0.80;0.68;;;;;;;;;;5870281;28;20072;-84
2024/02/19 16:57:07;;;;;;;0.55;0.55;;;;;;;;;;5888362;28;20418;-84
2024/02/19 16:59:58;;;;;;;2.03;1.58;;;;;;;;;;5904541;28;20502;-84
2024/02/19 17:02:49;;;;;;;1.20;1.10;;;;;;;;;;5887523;28;20045;-85